createdAt,value
2022-10-19T00:02:13.121Z,100.00
2022-10-19T00:04:40.042Z,100.00
2022-10-19T00:07:06.861Z,100.00
2022-10-19T00:09:33.669Z,100.00
2022-10-19T00:12:00.581Z,100.00
2022-10-19T00:14:27.388Z,100.00
2022-10-19T00:16:55.663Z,100.00
2022-10-19T00:19:24.261Z,100.00
2022-10-19T00:24:17.965Z,100.00
2022-10-19T00:26:44.800Z,100.00
2022-10-19T00:29:12.803Z,100.00
2022-10-19T00:31:39.720Z,100.00
2022-10-19T00:34:06.581Z,100.00
2022-10-19T00:36:35.404Z,100.00
2022-10-19T00:39:02.720Z,100.00
2022-10-19T00:41:30.740Z,100.00
2022-10-19T00:44:08.240Z,100.00
2022-10-19T00:46:37.200Z,100.00
2022-10-19T00:49:10.900Z,100.00
2022-10-19T00:51:40.080Z,100.00
2022-10-19T00:54:07.021Z,100.00
2022-10-19T00:56:34.043Z,100.00
2022-10-19T00:59:03.240Z,100.00
2022-10-19T01:01:30.172Z,100.00
2022-10-19T01:03:57.100Z,100.00
2022-10-19T01:06:24.263Z,100.00
2022-10-19T01:08:51.082Z,100.00
2022-10-19T01:11:23.907Z,100.00
2022-10-19T01:13:54.461Z,100.00
2022-10-19T01:16:46.204Z,100.00
2022-10-19T01:19:28.523Z,100.00
2022-10-19T01:22:19.624Z,100.00
2022-10-19T01:25:11.638Z,100.00
2022-10-19T01:27:51.361Z,100.00
2022-10-19T01:30:28.744Z,100.00
2022-10-19T01:33:20.141Z,100.00
2022-10-19T01:35:52.840Z,100.00
2022-10-19T01:38:27.069Z,100.00
2022-10-19T01:41:35.521Z,100.00
2022-10-19T01:44:09.788Z,100.00
2022-10-19T01:46:41.259Z,100.00
2022-10-19T01:49:33.643Z,100.00
2022-10-19T01:52:02.562Z,100.00
2022-10-19T01:54:31.141Z,100.00
2022-10-19T01:56:58.980Z,100.00
2022-10-19T01:59:25.820Z,100.00
2022-10-19T02:01:52.939Z,100.00
2022-10-19T02:04:21.061Z,100.00
2022-10-19T02:06:47.886Z,100.00
2022-10-19T02:09:18.282Z,100.00
2022-10-19T02:11:53.363Z,100.00
2022-10-19T02:14:25.701Z,100.00
2022-10-19T02:16:55.301Z,100.00
2022-10-19T02:21:49.003Z,100.00
2022-10-19T02:24:15.841Z,100.00
2022-10-19T02:26:42.742Z,100.00
2022-10-19T02:29:09.740Z,100.00
2022-10-19T02:31:36.561Z,100.00
2022-10-19T02:34:03.399Z,100.00
2022-10-19T02:36:30.240Z,100.00
2022-10-19T02:38:57.043Z,100.00
2022-10-19T02:41:35.380Z,100.00
2022-10-19T02:44:09.559Z,100.00
2022-10-19T02:46:42.567Z,100.00
2022-10-19T02:49:09.706Z,100.00
2022-10-19T02:51:40.782Z,100.00
2022-10-19T02:54:08.164Z,100.00
2022-10-19T02:56:35.139Z,100.00
2022-10-19T02:59:02.662Z,100.00
2022-10-19T03:01:29.460Z,100.00
2022-10-19T03:03:56.341Z,100.00
2022-10-19T03:06:23.683Z,100.00
2022-10-19T03:08:51.040Z,100.00
2022-10-19T03:11:17.840Z,100.00
2022-10-19T03:13:44.831Z,100.00
2022-10-19T03:16:12.390Z,100.00
2022-10-19T03:18:39.480Z,100.00
2022-10-19T03:21:10.780Z,100.00
2022-10-19T03:23:38.040Z,100.00
2022-10-19T03:26:07.611Z,100.00
2022-10-19T03:28:36.942Z,100.00
2022-10-19T03:31:03.759Z,100.00
2022-10-19T03:33:30.542Z,100.00
2022-10-19T03:36:22.219Z,100.00
2022-10-19T03:38:55.741Z,100.00
2022-10-19T03:41:23.339Z,100.00
2022-10-19T03:43:50.325Z,100.00
2022-10-19T03:46:17.301Z,100.00
2022-10-19T03:48:44.241Z,100.00
2022-10-19T03:51:12.952Z,100.00
2022-10-19T03:53:40.721Z,100.00
2022-10-19T03:56:09.400Z,100.00
2022-10-19T03:58:37.001Z,100.00
2022-10-19T04:01:07.417Z,100.00
2022-10-19T04:06:15.810Z,100.00
2022-10-19T04:08:45.180Z,100.00
2022-10-19T04:11:13.521Z,100.00
2022-10-19T04:13:40.443Z,100.00
2022-10-19T04:16:07.781Z,100.00
2022-10-19T04:18:34.603Z,100.00
2022-10-19T04:21:04.923Z,100.00
2022-10-19T04:23:33.623Z,100.00
2022-10-19T04:26:04.548Z,100.00
2022-10-19T04:28:31.446Z,100.00
2022-10-19T04:30:58.340Z,100.00
2022-10-19T04:33:25.180Z,100.00
2022-10-19T04:35:57.584Z,100.00
2022-10-19T04:38:24.408Z,100.00
2022-10-19T04:40:51.322Z,100.00
2022-10-19T04:43:18.182Z,100.00
2022-10-19T04:45:45.020Z,100.00
2022-10-19T04:48:14.960Z,100.00
2022-10-19T04:50:42.136Z,100.00
2022-10-19T04:53:09.044Z,100.00
2022-10-19T04:55:40.964Z,100.00
2022-10-19T04:58:07.900Z,100.00
2022-10-19T05:00:34.948Z,100.00
2022-10-19T05:03:01.804Z,100.00
2022-10-19T05:05:28.619Z,100.00
2022-10-19T05:07:55.441Z,100.00
2022-10-19T05:10:22.244Z,100.00
2022-10-19T05:12:49.042Z,100.00
2022-10-19T05:15:15.924Z,100.00
2022-10-19T05:17:42.763Z,100.00
2022-10-19T05:20:11.407Z,100.00
2022-10-19T05:22:38.962Z,100.00
2022-10-19T05:25:07.129Z,100.00
2022-10-19T05:27:34.639Z,100.00
2022-10-19T05:30:01.642Z,100.00
2022-10-19T05:32:28.781Z,100.00
2022-10-19T05:34:55.560Z,100.00
2022-10-19T05:37:22.647Z,100.00
2022-10-19T05:39:49.422Z,100.00
2022-10-19T05:42:16.240Z,100.00
2022-10-19T05:44:43.104Z,100.00
2022-10-19T05:47:09.920Z,100.00
2022-10-19T05:49:36.802Z,100.00
2022-10-19T05:52:03.743Z,100.00
2022-10-19T05:54:30.630Z,100.00
2022-10-19T05:56:57.462Z,100.00
2022-10-19T05:59:24.345Z,100.00
2022-10-19T06:01:51.405Z,100.00
2022-10-19T06:04:18.343Z,100.00
2022-10-19T06:06:45.941Z,100.00
2022-10-19T06:09:12.922Z,100.00
2022-10-19T06:11:40.787Z,100.00
2022-10-19T06:14:09.739Z,100.00
2022-10-19T06:16:36.622Z,100.00
2022-10-19T06:19:03.623Z,100.00
2022-10-19T06:21:30.882Z,100.00
2022-10-19T06:23:59.463Z,100.00
2022-10-19T06:26:26.524Z,100.00
2022-10-19T06:28:55.611Z,100.00
2022-10-19T06:31:22.400Z,100.00
2022-10-19T06:33:49.756Z,100.00
2022-10-19T06:36:21.860Z,100.00
2022-10-19T06:38:48.898Z,100.00
2022-10-19T06:41:15.883Z,100.00
2022-10-19T06:43:43.602Z,100.00
2022-10-19T06:46:20.571Z,100.00
2022-10-19T06:48:54.670Z,100.00
2022-10-19T06:51:21.801Z,100.00
2022-10-19T06:53:51.671Z,100.00
2022-10-19T06:56:24.609Z,100.00
2022-10-19T06:58:51.660Z,100.00
2022-10-19T07:01:18.600Z,100.00
2022-10-19T07:03:45.582Z,100.00
2022-10-19T07:06:12.822Z,100.00
2022-10-19T07:08:40.521Z,100.00
2022-10-19T07:11:09.719Z,100.00
2022-10-19T07:13:36.606Z,100.00
2022-10-19T07:16:08.521Z,100.00
2022-10-19T07:18:35.802Z,100.00
2022-10-19T07:21:03.922Z,100.00
2022-10-19T07:23:31.578Z,100.00
2022-10-19T07:26:01.899Z,100.00
2022-10-19T07:28:29.580Z,100.00
2022-10-19T07:30:56.540Z,99.96
2022-10-19T07:33:23.485Z,98.30
2022-10-19T07:35:50.344Z,95.96
2022-10-19T07:38:17.180Z,90.90
2022-10-19T07:40:46.562Z,87.18
2022-10-19T07:43:14.482Z,83.83
2022-10-19T07:45:41.324Z,82.63
2022-10-19T07:48:08.202Z,80.71
2022-10-19T07:50:35.024Z,78.97
2022-10-19T07:53:03.599Z,76.18
2022-10-19T07:55:30.421Z,74.26
2022-10-19T07:58:01.567Z,72.82
2022-10-19T08:00:28.599Z,69.27
2022-10-19T08:03:19.353Z,66.97
2022-10-19T08:05:42.501Z,63.11
2022-10-19T08:08:09.302Z,67.42
2022-10-19T08:10:36.141Z,70.02
2022-10-19T08:13:02.980Z,67.55
2022-10-19T08:15:30.330Z,66.31
2022-10-19T08:17:57.201Z,68.37
2022-10-19T08:20:24.022Z,70.44
2022-10-19T08:22:55.038Z,75.50
2022-10-19T08:25:24.989Z,78.19
2022-10-19T08:27:52.634Z,80.99
2022-10-19T08:30:19.480Z,84.26
2022-10-19T08:32:46.302Z,85.60
2022-10-19T08:35:13.120Z,88.02
2022-10-19T08:37:44.744Z,88.25
2022-10-19T08:40:25.801Z,90.24
2022-10-19T08:42:58.399Z,87.41
2022-10-19T08:45:47.067Z,82.93
2022-10-19T08:48:16.822Z,77.79
2022-10-19T08:50:44.282Z,74.78
2022-10-19T08:53:22.544Z,70.54
2022-10-19T08:55:55.259Z,65.28
2022-10-19T08:58:36.881Z,61.68
2022-10-19T09:01:22.440Z,61.77
2022-10-19T09:03:56.306Z,61.14
2022-10-19T09:06:37.684Z,62.67
2022-10-19T09:09:05.121Z,62.15
2022-10-19T09:11:34.964Z,65.17
2022-10-19T09:14:23.652Z,69.89
2022-10-19T09:16:50.485Z,72.67
2022-10-19T09:19:29.520Z,74.13
2022-10-19T09:21:57.221Z,77.09
2022-10-19T09:24:43.781Z,78.98
2022-10-19T09:27:37.040Z,73.45
2022-10-19T09:30:06.267Z,70.11
2022-10-19T09:32:38.103Z,66.79
2022-10-19T09:35:07.705Z,63.45
2022-10-19T09:37:37.584Z,59.61
2022-10-19T09:40:06.042Z,53.53
2022-10-19T09:42:34.049Z,49.14
2022-10-19T09:45:06.721Z,51.36
2022-10-19T09:47:38.390Z,53.83
2022-10-19T09:50:15.003Z,54.97
2022-10-19T09:52:42.642Z,57.51
2022-10-19T09:55:15.859Z,59.78
2022-10-19T09:57:49.910Z,63.66
2022-10-19T10:00:24.341Z,61.76
2022-10-19T10:02:55.227Z,58.51
2022-10-19T10:05:42.338Z,66.35
2022-10-19T10:08:14.517Z,66.61
2022-10-19T10:10:46.621Z,63.06
2022-10-19T10:13:24.502Z,65.00
2022-10-19T10:15:55.022Z,64.97
2022-10-19T10:18:21.923Z,67.76
2022-10-19T10:21:11.442Z,70.20
2022-10-19T10:23:38.421Z,72.22
2022-10-19T10:26:06.321Z,72.47
2022-10-19T10:28:33.181Z,72.74
2022-10-19T10:31:05.082Z,73.44
2022-10-19T10:33:44.248Z,69.82
2022-10-19T10:36:12.099Z,67.42
2022-10-19T10:38:47.562Z,63.92
2022-10-19T10:41:20.271Z,57.47
2022-10-19T10:44:05.022Z,56.55
2022-10-19T10:46:37.280Z,55.02
2022-10-19T10:49:07.824Z,57.70
2022-10-19T10:51:39.017Z,56.89
2022-10-19T10:54:32.444Z,60.35
2022-10-19T10:57:19.934Z,62.53
2022-10-19T10:59:55.681Z,65.10
2022-10-19T11:02:30.662Z,65.76
2022-10-19T11:05:14.343Z,68.31
2022-10-19T11:08:02.743Z,69.93
2022-10-19T11:10:37.683Z,69.57
2022-10-19T11:13:15.361Z,61.50
2022-10-19T11:15:47.841Z,61.34
2022-10-19T11:18:27.745Z,59.38
2022-10-19T11:21:12.661Z,60.87
2022-10-19T11:24:04.002Z,60.26
2022-10-19T11:26:55.275Z,62.23
2022-10-19T11:29:34.661Z,66.13
2022-10-19T11:32:01.587Z,66.89
2022-10-19T11:35:05.843Z,69.41
2022-10-19T11:38:17.547Z,70.73
2022-10-19T11:40:59.665Z,72.82
2022-10-19T11:43:49.310Z,74.36
2022-10-19T11:46:30.900Z,71.05
2022-10-19T11:49:18.661Z,68.77
2022-10-19T11:52:13.104Z,65.01
2022-10-19T11:54:54.267Z,60.36
2022-10-19T11:57:46.902Z,58.46
2022-10-19T12:00:38.314Z,52.76
2022-10-19T12:03:29.330Z,51.35
2022-10-19T12:06:19.267Z,50.13
2022-10-19T12:09:01.071Z,50.37
2022-10-19T12:11:40.150Z,56.23
2022-10-19T12:14:11.580Z,59.34
2022-10-19T12:16:40.619Z,62.71
2022-10-19T12:19:07.544Z,63.17
2022-10-19T12:21:38.480Z,63.20
2022-10-19T12:24:16.622Z,64.68
2022-10-19T12:26:43.440Z,65.62
2022-10-19T12:29:19.904Z,67.75
2022-10-19T12:31:47.065Z,67.82
2022-10-19T12:34:51.024Z,67.08
2022-10-19T12:37:58.242Z,70.63
2022-10-19T12:40:47.860Z,67.62
2022-10-19T12:43:19.271Z,69.31
2022-10-19T12:46:23.403Z,71.74
2022-10-19T12:49:27.903Z,65.92
2022-10-19T12:51:56.244Z,59.41
2022-10-19T12:54:28.518Z,57.60
2022-10-19T12:56:56.741Z,56.42
2022-10-19T12:59:34.183Z,52.68
2022-10-19T13:02:01.761Z,50.13
2022-10-19T13:04:33.063Z,47.49
2022-10-19T13:07:04.563Z,52.05
2022-10-19T13:09:38.371Z,50.86
2022-10-19T13:12:21.527Z,50.88
2022-10-19T13:15:01.036Z,47.88
2022-10-19T13:17:34.358Z,49.31
2022-10-19T13:20:13.314Z,52.09
2022-10-19T13:22:41.004Z,53.16
2022-10-19T13:25:27.287Z,54.04
2022-10-19T13:27:55.185Z,59.34
2022-10-19T13:30:43.543Z,57.15
2022-10-19T13:33:29.167Z,63.58
2022-10-19T13:35:58.940Z,66.13
2022-10-19T13:38:28.830Z,69.75
2022-10-19T13:40:55.642Z,73.47
2022-10-19T13:43:27.641Z,74.99
2022-10-19T13:46:10.881Z,77.50
2022-10-19T13:49:05.305Z,78.80
2022-10-19T13:51:33.701Z,80.20
2022-10-19T13:54:37.602Z,79.30
2022-10-19T13:57:42.090Z,77.44
2022-10-19T14:00:15.941Z,78.10
2022-10-19T14:02:51.205Z,79.16
2022-10-19T14:05:35.761Z,79.79
2022-10-19T14:08:45.048Z,80.87
2022-10-19T14:11:13.325Z,82.14
2022-10-19T14:13:40.304Z,84.86
2022-10-19T14:16:07.224Z,86.50
2022-10-19T14:18:35.465Z,88.20
2022-10-19T14:21:09.305Z,89.72
2022-10-19T14:23:38.248Z,90.65
2022-10-19T14:26:16.942Z,91.91
2022-10-19T14:28:43.780Z,92.97
2022-10-19T14:31:13.325Z,92.46
2022-10-19T14:33:40.762Z,93.12
2022-10-19T14:36:07.841Z,91.84
2022-10-19T14:38:38.561Z,91.09
2022-10-19T14:41:06.065Z,91.00
2022-10-19T14:43:34.362Z,92.53
2022-10-19T14:46:07.253Z,92.41
2022-10-19T14:48:38.440Z,93.75
2022-10-19T14:51:15.139Z,94.79
2022-10-19T14:53:42.021Z,95.17
2022-10-19T14:56:17.803Z,95.83
2022-10-19T14:59:06.003Z,96.10
2022-10-19T15:01:32.890Z,96.51
2022-10-19T15:03:59.745Z,96.56
2022-10-19T15:06:31.222Z,97.06
2022-10-19T15:09:03.453Z,97.92
2022-10-19T15:11:38.282Z,97.88
2022-10-19T15:14:21.962Z,98.03
2022-10-19T15:16:58.151Z,97.93
2022-10-19T15:19:30.801Z,98.28
2022-10-19T15:22:23.791Z,98.92
2022-10-19T15:25:23.840Z,98.32
2022-10-19T15:27:51.180Z,98.61
2022-10-19T15:30:17.921Z,98.24
2022-10-19T15:32:45.742Z,99.19
2022-10-19T15:35:33.561Z,100.00
2022-10-19T15:38:24.499Z,100.00
2022-10-19T15:40:56.880Z,100.00
2022-10-19T15:43:33.528Z,100.00
2022-10-19T15:46:12.518Z,100.00
2022-10-19T15:48:42.926Z,100.00
2022-10-19T15:51:29.125Z,100.00
2022-10-19T15:54:03.546Z,100.00
2022-10-19T15:56:32.088Z,100.00
2022-10-19T15:59:00.029Z,100.00
2022-10-19T16:01:28.394Z,100.00
2022-10-19T16:03:55.502Z,100.00
2022-10-19T16:06:23.447Z,100.00
2022-10-19T16:08:51.396Z,100.00
2022-10-19T16:11:19.203Z,100.00
2022-10-19T16:13:46.143Z,100.00
2022-10-19T16:16:18.345Z,100.00
2022-10-19T16:18:45.142Z,100.00
2022-10-19T16:21:12.004Z,100.00
2022-10-19T16:23:41.876Z,100.00
2022-10-19T16:26:09.183Z,100.00
2022-10-19T16:28:36.023Z,100.00
2022-10-19T16:31:02.986Z,100.00
2022-10-19T16:33:29.762Z,100.00
2022-10-19T16:35:56.622Z,100.00
2022-10-19T16:38:23.442Z,100.00
2022-10-19T16:40:50.261Z,100.00
2022-10-19T16:43:17.061Z,100.00
2022-10-19T16:45:44.008Z,100.00
2022-10-19T16:48:13.706Z,100.00
2022-10-19T16:50:40.593Z,100.00
2022-10-19T16:53:11.561Z,100.00
2022-10-19T16:55:39.846Z,100.00
2022-10-19T16:58:06.782Z,100.00
2022-10-19T17:00:33.863Z,100.00
2022-10-19T17:03:00.638Z,100.00
2022-10-19T17:05:27.501Z,100.00
2022-10-19T17:07:54.333Z,100.00
2022-10-19T17:10:21.186Z,100.00
2022-10-19T17:12:48.045Z,100.00
2022-10-19T17:15:41.610Z,100.00
2022-10-19T17:18:01.684Z,100.00
2022-10-19T17:20:28.515Z,100.00
2022-10-19T17:22:55.333Z,100.00
2022-10-19T17:25:22.127Z,100.00
2022-10-19T17:27:52.228Z,100.00
2022-10-19T17:30:19.042Z,100.00
2022-10-19T17:32:45.892Z,100.00
2022-10-19T17:35:12.746Z,100.00
2022-10-19T17:37:39.595Z,100.00
2022-10-19T17:40:07.296Z,100.00
2022-10-19T17:42:36.564Z,100.00
2022-10-19T17:45:03.593Z,100.00
2022-10-19T17:47:30.695Z,100.00
2022-10-19T17:49:57.645Z,100.00
2022-10-19T17:52:24.424Z,100.00
2022-10-19T17:55:11.076Z,100.00
2022-10-19T17:57:38.254Z,100.00
2022-10-19T18:00:07.200Z,100.00
2022-10-19T18:02:35.610Z,100.00
2022-10-19T18:05:02.689Z,100.00
2022-10-19T18:07:29.533Z,100.00
2022-10-19T18:09:56.358Z,100.00
2022-10-19T18:12:23.232Z,100.00
2022-10-19T18:14:50.037Z,100.00
2022-10-19T18:17:16.881Z,100.00
2022-10-19T18:19:43.685Z,100.00
2022-10-19T18:22:10.570Z,100.00
2022-10-19T18:24:37.396Z,100.00
2022-10-19T18:27:04.214Z,100.00
2022-10-19T18:29:31.011Z,100.00
2022-10-19T18:31:57.921Z,100.00
2022-10-19T18:34:25.780Z,100.00
2022-10-19T18:36:52.715Z,100.00
2022-10-19T18:39:19.486Z,100.00
2022-10-19T18:41:46.400Z,100.00
2022-10-19T18:44:13.410Z,100.00
2022-10-19T18:46:40.196Z,100.00
2022-10-19T18:49:08.274Z,100.00
2022-10-19T18:51:35.227Z,100.00
2022-10-19T18:54:02.112Z,100.00
2022-10-19T18:56:29.606Z,100.00
2022-10-19T18:58:56.850Z,100.00
2022-10-19T19:01:27.547Z,100.00
2022-10-19T19:03:58.765Z,100.00
2022-10-19T19:06:28.983Z,100.00
2022-10-19T19:08:56.651Z,100.00
2022-10-19T19:11:25.117Z,100.00
2022-10-19T19:13:56.196Z,100.00
2022-10-19T19:16:23.307Z,100.00
2022-10-19T19:18:50.290Z,100.00
2022-10-19T19:21:24.747Z,100.00
2022-10-19T19:23:51.873Z,100.00
2022-10-19T19:26:19.198Z,100.00
2022-10-19T19:28:49.096Z,100.00
2022-10-19T19:31:17.442Z,100.00
2022-10-19T19:33:45.089Z,100.00
2022-10-19T19:36:12.805Z,100.00
2022-10-19T19:38:39.674Z,100.00
2022-10-19T19:41:11.688Z,100.00
2022-10-19T19:43:38.800Z,100.00
2022-10-19T19:46:09.540Z,100.00
2022-10-19T19:48:37.245Z,100.00
2022-10-19T19:51:04.138Z,100.00
2022-10-19T19:53:31.168Z,100.00
2022-10-19T19:55:57.995Z,100.00
2022-10-19T19:58:24.749Z,100.00
2022-10-19T20:00:51.510Z,100.00
2022-10-19T20:03:18.428Z,100.00
2022-10-19T20:05:45.250Z,100.00
2022-10-19T20:08:12.053Z,100.00
2022-10-19T20:10:42.209Z,100.00
2022-10-19T20:13:09.112Z,100.00
2022-10-19T20:15:39.070Z,100.00
2022-10-19T20:18:06.648Z,100.00
2022-10-19T20:20:33.533Z,100.00
2022-10-19T20:23:00.328Z,100.00
2022-10-19T20:25:27.216Z,100.00
2022-10-19T20:27:54.050Z,100.00
2022-10-19T20:30:20.897Z,100.00
2022-10-19T20:32:47.735Z,100.00
2022-10-19T20:35:14.712Z,100.00
2022-10-19T20:37:41.735Z,100.00
2022-10-19T20:40:09.187Z,100.00
2022-10-19T20:42:36.427Z,100.00
2022-10-19T20:45:03.940Z,100.00
2022-10-19T20:47:30.808Z,100.00
2022-10-19T20:49:57.697Z,100.00
2022-10-19T20:52:24.602Z,100.00
2022-10-19T20:54:51.362Z,100.00
2022-10-19T20:57:18.192Z,100.00
2022-10-19T20:59:45.811Z,100.00
2022-10-19T21:02:12.620Z,100.00
2022-10-19T21:04:39.459Z,100.00
2022-10-19T21:07:06.304Z,100.00
2022-10-19T21:09:33.255Z,100.00
2022-10-19T21:12:01.387Z,100.00
2022-10-19T21:14:29.149Z,100.00
2022-10-19T21:16:59.886Z,100.00
2022-10-19T21:19:27.733Z,100.00
2022-10-19T21:21:57.005Z,100.00
2022-10-19T21:24:25.838Z,100.00
2022-10-19T21:26:52.895Z,100.00
2022-10-19T21:29:19.910Z,100.00
2022-10-19T21:31:49.109Z,100.00
2022-10-19T21:34:24.120Z,100.00
2022-10-19T21:36:50.970Z,100.00
2022-10-19T21:39:17.844Z,100.00
2022-10-19T21:41:44.789Z,100.00
2022-10-19T21:44:11.568Z,100.00
2022-10-19T21:46:38.398Z,100.00
2022-10-19T21:49:05.214Z,100.00
2022-10-19T21:51:54.127Z,100.00
2022-10-19T21:54:22.555Z,100.00
2022-10-19T21:56:49.509Z,100.00
2022-10-19T21:59:16.766Z,100.00
2022-10-19T22:01:43.757Z,100.00
2022-10-19T22:04:15.053Z,100.00
2022-10-19T22:06:42.144Z,100.00
2022-10-19T22:09:10.094Z,100.00
2022-10-19T22:11:37.028Z,100.00
2022-10-19T22:14:03.996Z,100.00
2022-10-19T22:16:31.156Z,100.00
2022-10-19T22:18:58.027Z,100.00
2022-10-19T22:21:26.831Z,100.00
2022-10-19T22:24:04.056Z,100.00
2022-10-19T22:26:35.921Z,100.00
2022-10-19T22:29:02.988Z,100.00
2022-10-19T22:31:30.917Z,100.00
2022-10-19T22:33:57.994Z,100.00
2022-10-19T22:36:24.814Z,100.00
2022-10-19T22:38:51.653Z,100.00
2022-10-19T22:41:18.945Z,100.00
2022-10-19T22:43:45.695Z,100.00
2022-10-19T22:46:12.443Z,100.00
2022-10-19T22:48:39.188Z,100.00
2022-10-19T22:51:06.048Z,100.00
2022-10-19T22:53:32.785Z,100.00
2022-10-19T22:55:59.562Z,100.00
2022-10-19T22:58:26.298Z,100.00
2022-10-19T23:01:00.820Z,100.00
2022-10-19T23:03:27.586Z,100.00
2022-10-19T23:05:54.339Z,100.00
2022-10-19T23:08:21.073Z,100.00
2022-10-19T23:10:47.777Z,100.00
2022-10-19T23:13:15.225Z,100.00
2022-10-19T23:15:43.947Z,100.00
2022-10-19T23:18:11.253Z,100.00
2022-10-19T23:20:38.037Z,100.00
2022-10-19T23:23:04.995Z,100.00
2022-10-19T23:27:58.427Z,100.00
2022-10-19T23:30:25.176Z,100.00
2022-10-19T23:32:51.949Z,100.00
2022-10-19T23:35:18.695Z,100.00
2022-10-19T23:37:45.415Z,100.00
2022-10-19T23:40:12.453Z,100.00
2022-10-19T23:42:39.255Z,100.00
2022-10-19T23:45:06.627Z,100.00
2022-10-19T23:47:33.661Z,100.00
2022-10-19T23:50:00.620Z,100.00
2022-10-19T23:52:27.406Z,100.00
2022-10-19T23:54:54.204Z,100.00
2022-10-19T23:57:21.013Z,100.00
2022-10-19T23:59:47.835Z,100.00
